Maryland METAR Reports


Distance/Direction noted is from Ellicott City, MD as the crow flies

KCBE - Cumberland - 118 miles WNW
Updated: Fri, 04/18/2014 8:59 AM
Mostly Cloudy
Mostly Cloudy
 Wind from calm
Wind: Calm
Temperature: 41°F
Dew Point: 32°F
Humidity: 70%
Barometer: 30.49 inHg
Clouds: Mostly Cloudy
Visibility: 10 miles
Cloud Details: Mostly Cloudy 2000 ft
2014/04/18 12:59 KCBE 181259Z AUTO 00000KT 10SM BKN020 05/00 A3049 RMK AO1
KHGR - Hagerstown - 57 miles NW
Updated: Fri, 04/18/2014 8:53 AM
Clear
Clear
 Wind from E
Wind: E 3 mph
Temperature: 37°F
Dew Point: 30°F
Humidity: 75%
Barometer: 30.47 inHg
Clouds: Clear
Visibility: 10 miles
2014/04/18 12:53 KHGR 181253Z 09003KT 10SM CLR 03/M01 A3047 RMK AO2 SLP332 T00281011
 
KFDK - Frederick - 34 miles NW
Updated: Fri, 04/18/2014 8:46 AM
Clear
Clear
 Wind from ENE
Wind: ENE 3 mph
Temperature: 39°F
Dew Point: 34°F
Humidity: 81%
Barometer: 30.53 inHg
Clouds: Clear
Visibility: 10 miles
2014/04/18 12:46 KFDK 181246Z 06003KT 10SM SKC 04/01 A3053
KGAI - Gaithersburg - 26 miles SW
Updated: Fri, 04/18/2014 8:55 AM
Mostly Cloudy
Mostly Cloudy
 Wind from E
Wind: E 3 mph
Temperature: 37°F
Dew Point: 28°F
Humidity: 70%
Barometer: 30.51 inHg
Clouds: Mostly Cloudy
Visibility: 10 miles
Cloud Details: Mostly Cloudy 1800 ft
2014/04/18 12:55 KGAI 181255Z AUTO 09003KT 10SM BKN018 03/M02 A3051 RMK AO1
 
KBWI - BWI Airport - 15 miles SE
Updated: Fri, 04/18/2014 8:54 AM
Mostly Cloudy
Mostly Cloudy
 Wind from E
Wind: E 7 mph
Temperature: 41°F
Wind Chill: 36°F
Dew Point: 30°F
Humidity: 66%
Barometer: 30.50 inHg
Clouds: Mostly Cloudy
Visibility: 10 miles
Cloud Details: Mostly Cloudy 2200 ft
Mostly Cloudy 9000 ft
Mostly Cloudy 25000 ft
2014/04/18 12:54 KBWI 181254Z 08006KT 10SM BKN022 BKN090 BKN250 05/M01 A3050 RMK AO2 SLP327 T00501006
KNAK - Annapolis - 32 miles SSE
Updated: Fri, 04/18/2014 8:54 AM
Overcast
Overcast
 Wind from E
Wind: E 8 mph
Temperature: 41°F
Wind Chill: 36°F
Dew Point: 34°F
Humidity: 76%
Barometer: 30.51 inHg
Clouds: Overcast
Visibility: 10 miles
Cloud Details: Overcast 2500 ft
2014/04/18 12:54 KNAK 181254Z AUTO 10007KT 10SM OVC025 05/01 A3051 RMK AO2 SLP333 T00500006
 
KESN - Easton - 63 miles SE
Updated: Fri, 04/18/2014 8:50 AM
Overcast
Overcast
 Wind from ENE
Wind: ENE 7 mph
Temperature: 43°F
Wind Chill: 39°F
Dew Point: 36°F
Humidity: 76%
Barometer: 30.53 inHg
Clouds: Overcast
Visibility: 10 miles
Cloud Details: Overcast 2000 ft
2014/04/18 12:50 KESN 181250Z 07006KT 10SM OVC020 06/02 A3053
KSBY - Salisbury - 112 miles SE
Updated: Fri, 04/18/2014 8:54 AM
Overcast
Overcast
 Wind from NE
Wind: NE 12 mph
Temperature: 45°F
Wind Chill: 39°F
Dew Point: 36°F
Humidity: 71%
Barometer: 30.48 inHg
Clouds: Overcast
Visibility: 10 miles
Cloud Details: Overcast 1900 ft
2014/04/18 12:54 KSBY 181254Z 04010KT 10SM OVC019 07/02 A3048 RMK AO2 SLP323 T00720017